Overview Statistics Trail Chart Weather Telemetry Raw packets
 

This is the latest recevied weather packets stored in our database for station/object N5TDX. If no packets are shown the sender has not sent any weather packets the latest 10 day(s).

<< 56 57 58 59 60 61 62 >>
Time Temp. Humidity Pressure Rain* Wind** Luminosity Snow
1788285188 37.22° C 38% 1013.4 hPa 0 mm - - -
1788284883 37.78° C 36% 1013.6 hPa 0 mm - - -
1788284579 36.67° C 38% 1013.5 hPa 0 mm - - -
1788284274 36.11° C 39% 1013.6 hPa 0 mm - - -
1788283974 36.67° C 38% 1013.8 hPa 0 mm - - -
1788283671 37.22° C 38% 1013.9 hPa 0 mm - - -
1788283370 37.78° C 37% 1014.2 hPa 0 mm - - -
1788283068 37.22° C 38% 1014.1 hPa 0 mm - - -
1788282768 36.67° C 39% 1014.1 hPa 0 mm - - -
1788282467 36.67° C 39% 1014.1 hPa 0 mm - - -
1788282167 36.11° C 40% 1014.1 hPa 0 mm - - -
1788281865 36.67° C 39% 1014.3 hPa 0 mm - - -
1788281560 36.11° C 40% 1014.3 hPa 0 mm - - -
1788281257 36.67° C 39% 1014.3 hPa 0 mm - - -
1788280952 36.11° C 40% 1014.4 hPa 0 mm - - -
1788280647 35.56° C 41% 1014.3 hPa 0 mm - - -
1788280346 35.56° C 41% 1014.2 hPa 0 mm - - -
1788280042 36.11° C 40% 1014.4 hPa 0 mm - - -
1788279751 36.11° C 40% 1014.4 hPa 0 mm - - -
1788279440 35.56° C 40% 1014.5 hPa 0 mm - - -
1788279135 35° C 42% 1014.6 hPa 0 mm - - -
1788278831 35° C 42% 1014.5 hPa 0 mm - - -
1788278526 34.44° C 44% 1014.5 hPa 0 mm - - -
1788278225 34.44° C 44% 1014.3 hPa 0 mm - - -
1788277920 34.44° C 45% 1014.6 hPa 0 mm - - -

* Rain latest hour (hover to see other rain measurements)
** Current wind speed in m/s (hover to see current wind gust speed)